createdAt,value
2023-04-02T00:02:15.751Z,100533.34
2023-04-02T00:04:44.082Z,100529.00
2023-04-02T00:07:31.118Z,100537.94
2023-04-02T00:09:59.473Z,100540.50
2023-04-02T00:12:29.131Z,100543.25
2023-04-02T00:14:58.306Z,100551.19
2023-04-02T00:17:26.874Z,100550.25
2023-04-02T00:19:58.466Z,100552.84
2023-04-02T00:22:28.201Z,100552.97
2023-04-02T00:24:57.144Z,100558.44
2023-04-02T00:27:25.896Z,100561.94
2023-04-02T00:29:57.020Z,100560.91
2023-04-02T00:32:27.028Z,100561.88
2023-04-02T00:34:55.947Z,100569.66
2023-04-02T00:37:28.301Z,100570.59
2023-04-02T00:40:00.219Z,100575.03
2023-04-02T00:42:30.724Z,100577.69
2023-04-02T00:45:01.288Z,100581.31
2023-04-02T00:47:33.895Z,100584.94
2023-04-02T00:50:05.529Z,100589.22
2023-04-02T00:52:35.245Z,100591.16
2023-04-02T00:55:06.443Z,100598.34
2023-04-02T00:57:35.271Z,100594.75
2023-04-02T01:00:18.276Z,100601.84
2023-04-02T01:03:06.752Z,100600.97
2023-04-02T01:05:36.686Z,100606.44
2023-04-02T01:08:09.378Z,100612.50
2023-04-02T01:10:48.658Z,100614.53
2023-04-02T01:13:23.157Z,100620.44
2023-04-02T01:15:56.987Z,100616.25
2023-04-02T01:18:33.467Z,100618.06
2023-04-02T01:21:08.721Z,100623.47
2023-04-02T01:23:39.606Z,100620.00
2023-04-02T01:26:14.157Z,100627.16
2023-04-02T01:29:03.358Z,100633.22
2023-04-02T01:31:35.732Z,100636.81
2023-04-02T01:34:04.897Z,100643.81
2023-04-02T01:36:38.170Z,100648.09
2023-04-02T01:39:12.480Z,100647.81
2023-04-02T01:41:44.749Z,100654.25
2023-04-02T01:44:16.497Z,100663.44
2023-04-02T01:46:49.724Z,100663.53
2023-04-02T01:49:20.397Z,100662.13
2023-04-02T01:51:53.290Z,100667.47
2023-04-02T01:54:23.296Z,100672.38
2023-04-02T01:56:52.749Z,100676.66
2023-04-02T01:59:22.541Z,100671.47
2023-04-02T02:02:01.530Z,100675.13
2023-04-02T02:04:31.401Z,100676.13
2023-04-02T02:07:00.951Z,100675.25
2023-04-02T02:09:32.203Z,100685.13
2023-04-02T02:12:02.933Z,100693.13
2023-04-02T02:14:32.290Z,100692.06
2023-04-02T02:17:04.505Z,100703.03
2023-04-02T02:19:34.769Z,100709.16
2023-04-02T02:22:08.296Z,100706.53
2023-04-02T02:24:37.490Z,100715.84
2023-04-02T02:27:10.611Z,100719.63
2023-04-02T02:29:41.165Z,100713.56
2023-04-02T02:32:12.283Z,100724.66
2023-04-02T02:34:44.491Z,100724.34
2023-04-02T02:37:16.297Z,100732.91
2023-04-02T02:39:45.897Z,100735.44
2023-04-02T02:42:17.285Z,100737.50
2023-04-02T02:44:48.375Z,100737.84
2023-04-02T02:47:20.071Z,100749.94
2023-04-02T02:49:50.888Z,100758.03
2023-04-02T02:52:21.767Z,100758.97
2023-04-02T02:55:12.152Z,100762.81
2023-04-02T02:57:57.407Z,100764.91
2023-04-02T03:00:29.250Z,100772.63
2023-04-02T03:03:01.307Z,100764.34
2023-04-02T03:05:32.631Z,100779.41
2023-04-02T03:08:10.702Z,100772.63
2023-04-02T03:10:43.522Z,100769.16
2023-04-02T03:13:20.103Z,100781.66
2023-04-02T03:15:52.729Z,100787.59
2023-04-02T03:18:31.121Z,100792.31
2023-04-02T03:21:01.962Z,100795.84
2023-04-02T03:23:32.906Z,100808.03
2023-04-02T03:26:03.943Z,100799.31
2023-04-02T03:28:35.923Z,100808.94
2023-04-02T03:31:07.359Z,100812.84
2023-04-02T03:33:40.410Z,100811.84
2023-04-02T03:36:19.003Z,100815.53
2023-04-02T03:38:49.904Z,100822.81
2023-04-02T03:41:21.211Z,100811.84
2023-04-02T03:43:53.773Z,100832.53
2023-04-02T03:46:27.739Z,100831.53
2023-04-02T03:49:00.543Z,100841.78
2023-04-02T03:51:32.268Z,100842.50
2023-04-02T03:54:05.201Z,100840.66
2023-04-02T03:56:40.171Z,100857.34
2023-04-02T03:59:16.886Z,100855.66
2023-04-02T04:01:49.414Z,100865.59
2023-04-02T04:04:21.022Z,100872.63
2023-04-02T04:06:52.580Z,100871.16
2023-04-02T04:09:25.670Z,100880.47
2023-04-02T04:11:56.493Z,100877.91
2023-04-02T04:14:30.125Z,100892.16
2023-04-02T04:17:04.661Z,100886.16
2023-04-02T04:19:40.864Z,100892.09
2023-04-02T04:22:11.328Z,100890.69
2023-04-02T04:24:40.213Z,100896.22
2023-04-02T04:27:14.646Z,100902.53
2023-04-02T04:29:49.472Z,100913.84
2023-04-02T04:32:27.842Z,100914.66
2023-04-02T04:35:04.335Z,100920.72
2023-04-02T04:37:35.429Z,100929.97
2023-04-02T04:40:12.133Z,100934.44
2023-04-02T04:42:44.350Z,100942.41
2023-04-02T04:45:20.306Z,100944.34
2023-04-02T04:47:51.941Z,100945.06
2023-04-02T04:50:26.571Z,100954.78
2023-04-02T04:52:55.448Z,100951.81
2023-04-02T04:55:27.981Z,100960.88
2023-04-02T04:58:04.214Z,100964.38
2023-04-02T05:00:43.565Z,100968.75
2023-04-02T05:03:17.594Z,100966.78
2023-04-02T05:05:47.872Z,100964.91
2023-04-02T05:08:21.064Z,100981.66
2023-04-02T05:10:52.255Z,100983.06
2023-04-02T05:13:24.154Z,100984.53
2023-04-02T05:15:56.425Z,100990.81
2023-04-02T05:18:27.856Z,100991.03
2023-04-02T05:21:02.454Z,100991.03
2023-04-02T05:23:32.855Z,100995.56
2023-04-02T05:26:05.355Z,100997.06
2023-04-02T05:28:40.181Z,101002.72
2023-04-02T05:31:12.535Z,101009.66
2023-04-02T05:33:46.155Z,101009.16
2023-04-02T05:36:21.841Z,101010.00
2023-04-02T05:38:54.844Z,101006.19
2023-04-02T05:41:32.500Z,101010.44
2023-04-02T05:44:08.180Z,101024.31
2023-04-02T05:46:38.454Z,101014.41
2023-04-02T05:49:11.394Z,101032.06
2023-04-02T05:51:44.639Z,101036.19
2023-04-02T05:54:23.440Z,101032.59
2023-04-02T05:56:58.983Z,101032.00
2023-04-02T05:59:30.861Z,101036.38
2023-04-02T06:02:03.654Z,101044.19
2023-04-02T06:04:44.155Z,101042.19
2023-04-02T06:07:17.172Z,101048.81
2023-04-02T06:09:52.615Z,101045.69
2023-04-02T06:12:26.110Z,101052.66
2023-04-02T06:14:58.123Z,101051.66
2023-04-02T06:17:29.748Z,101052.09
2023-04-02T06:20:00.662Z,101059.00
2023-04-02T06:22:34.083Z,101063.50
2023-04-02T06:25:05.086Z,101067.44
2023-04-02T06:27:40.954Z,101060.16
2023-04-02T06:30:18.006Z,101059.19
2023-04-02T06:32:48.912Z,101058.44
2023-04-02T06:35:19.292Z,101070.19
2023-04-02T06:38:01.109Z,101068.97
2023-04-02T06:40:40.010Z,101081.94
2023-04-02T06:43:18.266Z,101084.69
2023-04-02T06:46:08.642Z,101085.13
2023-04-02T06:48:59.582Z,101077.66
2023-04-02T06:51:29.164Z,101098.44
2023-04-02T06:53:59.040Z,101092.94
2023-04-02T06:56:33.277Z,101091.97
2023-04-02T06:59:04.671Z,101106.16
2023-04-02T07:01:36.283Z,101104.47
2023-04-02T07:04:05.136Z,101108.88
2023-04-02T07:06:38.815Z,101115.56
2023-04-02T07:09:10.715Z,101116.34
2023-04-02T07:11:42.713Z,101122.94
2023-04-02T07:14:13.480Z,101121.06
2023-04-02T07:16:43.595Z,101130.78
2023-04-02T07:19:17.524Z,101131.00
2023-04-02T07:21:47.222Z,101134.66
2023-04-02T07:24:17.158Z,101131.25
2023-04-02T07:26:47.906Z,101138.91
2023-04-02T07:29:17.566Z,101142.97
2023-04-02T07:31:46.386Z,101136.97
2023-04-02T07:34:14.960Z,101140.00
2023-04-02T07:36:43.513Z,101144.34
2023-04-02T07:39:12.394Z,101152.06
2023-04-02T07:41:55.253Z,101154.19
2023-04-02T07:44:23.885Z,101150.97
2023-04-02T07:46:52.361Z,101151.56
2023-04-02T07:49:20.823Z,101162.06
2023-04-02T07:51:49.136Z,101158.09
2023-04-02T07:54:17.522Z,101172.94
2023-04-02T07:56:45.924Z,101173.66
2023-04-02T07:59:16.074Z,101170.72
2023-04-02T08:01:44.584Z,101173.09
2023-04-02T08:04:18.832Z,101173.25
2023-04-02T08:06:47.611Z,101198.00
2023-04-02T08:09:16.120Z,101187.00
2023-04-02T08:11:44.631Z,101189.97
2023-04-02T08:14:13.014Z,101204.59
2023-04-02T08:16:50.489Z,101199.16
2023-04-02T08:19:19.249Z,101201.72
2023-04-02T08:21:50.213Z,101201.72
2023-04-02T08:24:19.592Z,101198.56
2023-04-02T08:26:47.776Z,101197.53
2023-04-02T08:29:16.518Z,101204.28
2023-04-02T08:31:45.255Z,101207.31
2023-04-02T08:34:18.013Z,101207.56
2023-04-02T08:36:49.113Z,101209.63
2023-04-02T08:39:21.237Z,101212.59
2023-04-02T08:41:57.896Z,101219.97
2023-04-02T08:44:33.756Z,101222.16
2023-04-02T08:47:04.530Z,101211.22
2023-04-02T08:49:37.398Z,101220.97
2023-04-02T08:52:05.692Z,101215.81
2023-04-02T08:54:35.362Z,101221.94
2023-04-02T08:57:07.194Z,101224.75
2023-04-02T08:59:36.380Z,101227.81
2023-04-02T09:02:11.568Z,101236.69
2023-04-02T09:04:42.030Z,101223.09
2023-04-02T09:07:13.705Z,101238.72
2023-04-02T09:09:42.319Z,101241.41
2023-04-02T09:12:18.057Z,101242.97
2023-04-02T09:14:47.615Z,101243.66
2023-04-02T09:17:19.099Z,101246.69
2023-04-02T09:19:53.656Z,101257.81
2023-04-02T09:22:23.064Z,101252.16
2023-04-02T09:24:53.350Z,101252.16
2023-04-02T09:27:23.484Z,101251.88
2023-04-02T09:29:54.616Z,101267.59
2023-04-02T09:32:37.654Z,101266.59
2023-04-02T09:35:36.606Z,101272.69
2023-04-02T09:38:21.829Z,101266.50
2023-04-02T09:40:53.305Z,101271.97
2023-04-02T09:43:22.430Z,101273.44
2023-04-02T09:46:01.259Z,101273.47
2023-04-02T09:48:32.713Z,101277.84
2023-04-02T09:51:09.949Z,101274.03
2023-04-02T09:53:42.410Z,101277.94
2023-04-02T09:56:13.023Z,101293.03
2023-04-02T09:58:42.648Z,101295.19
2023-04-02T10:01:45.672Z,101298.13
2023-04-02T10:04:28.772Z,101304.03
2023-04-02T10:06:58.542Z,101303.97
2023-04-02T10:09:30.924Z,101301.63
2023-04-02T10:12:00.886Z,101290.38
2023-04-02T10:14:30.266Z,101303.69
2023-04-02T10:16:59.978Z,101312.59
2023-04-02T10:19:30.986Z,101310.81
2023-04-02T10:22:02.152Z,101319.13
2023-04-02T10:24:31.944Z,101313.31
2023-04-02T10:27:04.880Z,101319.03
2023-04-02T10:30:02.788Z,101321.38
2023-04-02T10:32:33.734Z,101320.59
2023-04-02T10:35:03.727Z,101317.00
2023-04-02T10:37:46.439Z,101310.28
2023-04-02T10:40:20.053Z,101322.34
2023-04-02T10:42:54.286Z,101323.38
2023-04-02T10:45:31.948Z,101327.00
2023-04-02T10:48:03.997Z,101328.28
2023-04-02T10:50:36.226Z,101322.00
2023-04-02T10:53:09.209Z,101322.88
2023-04-02T10:55:43.430Z,101330.78
2023-04-02T10:58:20.317Z,101328.94
2023-04-02T11:00:49.167Z,101336.88
2023-04-02T11:03:20.404Z,101344.81
2023-04-02T11:05:49.255Z,101350.63
2023-04-02T11:08:19.334Z,101347.97
2023-04-02T11:10:50.589Z,101349.75
2023-04-02T11:13:21.908Z,101348.44
2023-04-02T11:15:50.375Z,101347.38
2023-04-02T11:18:23.965Z,101356.16
2023-04-02T11:21:00.793Z,101363.94
2023-04-02T11:23:30.886Z,101364.50
2023-04-02T11:26:13.847Z,101366.50
2023-04-02T11:28:43.945Z,101376.69
2023-04-02T11:31:21.209Z,101378.91
2023-04-02T11:33:50.144Z,101360.88
2023-04-02T11:36:36.917Z,101374.63
2023-04-02T11:39:15.108Z,101372.75
2023-04-02T11:42:04.333Z,101383.22
2023-04-02T11:44:34.106Z,101384.25
2023-04-02T11:47:18.998Z,101387.28
2023-04-02T11:50:03.130Z,101390.09
2023-04-02T11:52:39.464Z,101395.56
2023-04-02T11:55:22.639Z,101388.31
2023-04-02T11:57:57.141Z,101399.38
2023-04-02T12:00:32.067Z,101393.50
2023-04-02T12:03:19.153Z,101393.78
2023-04-02T12:05:51.245Z,101408.88
2023-04-02T12:08:25.229Z,101401.69
2023-04-02T12:10:59.998Z,101403.47
2023-04-02T12:13:46.671Z,101402.06
2023-04-02T12:16:18.463Z,101419.16
2023-04-02T12:18:48.455Z,101421.00
2023-04-02T12:21:17.905Z,101421.81
2023-04-02T12:23:47.444Z,101429.28
2023-04-02T12:26:30.427Z,101416.22
2023-04-02T12:29:13.544Z,101423.44
2023-04-02T12:31:46.182Z,101427.53
2023-04-02T12:34:15.971Z,101428.28
2023-04-02T12:36:53.051Z,101430.19
2023-04-02T12:39:21.681Z,101435.00
2023-04-02T12:41:50.084Z,101433.19
2023-04-02T12:44:18.993Z,101426.59
2023-04-02T12:46:49.446Z,101443.59
2023-04-02T12:49:32.501Z,101448.38
2023-04-02T12:52:03.409Z,101452.00
2023-04-02T12:54:34.684Z,101449.00
2023-04-02T12:57:18.145Z,101454.03
2023-04-02T12:59:46.605Z,101455.34
2023-04-02T13:02:20.906Z,101453.41
2023-04-02T13:04:49.987Z,101456.38
2023-04-02T13:07:19.236Z,101452.16
2023-04-02T13:09:48.392Z,101463.66
2023-04-02T13:12:32.945Z,101467.50
2023-04-02T13:15:02.246Z,101464.56
2023-04-02T13:17:45.876Z,101466.31
2023-04-02T13:20:34.306Z,101475.84
2023-04-02T13:23:04.405Z,101463.44
2023-04-02T13:25:33.616Z,101469.38
2023-04-02T13:28:01.874Z,101473.13
2023-04-02T13:30:30.869Z,101482.31
2023-04-02T13:33:00.991Z,101484.97
2023-04-02T13:35:29.310Z,101476.53
2023-04-02T13:37:57.760Z,101470.63
2023-04-02T13:40:26.107Z,101488.44
2023-04-02T13:42:54.324Z,101487.31
2023-04-02T13:45:25.669Z,101481.72
2023-04-02T13:47:54.104Z,101492.97
2023-04-02T13:50:24.504Z,101505.31
2023-04-02T13:52:53.253Z,101504.72
2023-04-02T13:55:23.247Z,101505.72
2023-04-02T13:57:51.853Z,101508.47
2023-04-02T14:00:21.579Z,101512.22
2023-04-02T14:02:51.772Z,101507.56
2023-04-02T14:05:29.097Z,101513.44
2023-04-02T14:08:03.879Z,101512.84
2023-04-02T14:10:41.298Z,101515.16
2023-04-02T14:13:18.790Z,101529.53
2023-04-02T14:15:54.613Z,101521.41
2023-04-02T14:18:32.111Z,101534.72
2023-04-02T14:21:07.193Z,101526.31
2023-04-02T14:23:45.575Z,101526.88
2023-04-02T14:26:18.737Z,101522.84
2023-04-02T14:28:57.586Z,101529.59
2023-04-02T14:31:31.825Z,101535.19
2023-04-02T14:34:03.894Z,101544.66
2023-04-02T14:36:42.730Z,101535.00
2023-04-02T14:39:15.616Z,101545.34
2023-04-02T14:41:46.083Z,101540.69
2023-04-02T14:44:14.628Z,101559.97
2023-04-02T14:46:42.861Z,101564.13
2023-04-02T14:49:19.435Z,101557.09
2023-04-02T14:51:51.158Z,101555.81
2023-04-02T14:54:22.360Z,101556.38
2023-04-02T14:56:53.460Z,101577.41
2023-04-02T14:59:33.181Z,101573.41
2023-04-02T15:02:03.746Z,101587.03
2023-04-02T15:04:34.528Z,101578.47
2023-04-02T15:07:06.602Z,101579.41
2023-04-02T15:09:37.240Z,101594.06
2023-04-02T15:12:09.791Z,101583.31
2023-04-02T15:14:40.746Z,101587.66
2023-04-02T15:17:11.747Z,101592.44
2023-04-02T15:19:40.261Z,101595.25
2023-04-02T15:22:20.780Z,101597.16
2023-04-02T15:24:54.442Z,101608.66
2023-04-02T15:27:27.351Z,101605.47
2023-04-02T15:30:02.064Z,101614.91
2023-04-02T15:32:37.068Z,101610.09
2023-04-02T15:35:11.685Z,101616.69
2023-04-02T15:37:44.144Z,101628.56
2023-04-02T15:40:29.805Z,101631.47
2023-04-02T15:43:02.332Z,101629.88
2023-04-02T15:45:44.594Z,101642.84
2023-04-02T15:48:34.104Z,101642.09
2023-04-02T15:51:13.545Z,101648.16
2023-04-02T15:53:50.166Z,101644.72
2023-04-02T15:56:32.344Z,101657.38
2023-04-02T15:59:21.625Z,101652.94
2023-04-02T16:01:54.405Z,101660.44
2023-04-02T16:04:40.062Z,101675.34
2023-04-02T16:07:20.698Z,101675.69
2023-04-02T16:09:54.892Z,101679.28
2023-04-02T16:12:23.412Z,101682.13
2023-04-02T16:14:51.949Z,101685.59
2023-04-02T16:17:25.267Z,101681.94
2023-04-02T16:19:56.366Z,101689.81
2023-04-02T16:22:27.994Z,101693.25
2023-04-02T16:25:01.772Z,101701.34
2023-04-02T16:27:33.220Z,101704.47
2023-04-02T16:30:19.514Z,101699.72
2023-04-02T16:33:11.846Z,101716.72
2023-04-02T16:35:45.673Z,101715.63
2023-04-02T16:38:22.757Z,101719.88
2023-04-02T16:41:06.971Z,101736.16
2023-04-02T16:43:42.049Z,101733.97
2023-04-02T16:46:14.878Z,101737.59
2023-04-02T16:48:48.540Z,101738.84
2023-04-02T16:51:21.381Z,101745.09
2023-04-02T16:54:01.601Z,101757.81
2023-04-02T16:56:49.789Z,101757.88
2023-04-02T16:59:21.233Z,101757.56
2023-04-02T17:01:54.380Z,101768.13
2023-04-02T17:04:32.387Z,101765.50
2023-04-02T17:07:06.869Z,101763.66
2023-04-02T17:09:41.085Z,101769.13
2023-04-02T17:12:16.457Z,101773.31
2023-04-02T17:14:46.852Z,101772.59
2023-04-02T17:17:16.207Z,101780.94
2023-04-02T17:19:45.067Z,101780.28
2023-04-02T17:22:17.125Z,101785.53
2023-04-02T17:24:47.391Z,101790.31
2023-04-02T17:27:20.887Z,101785.81
2023-04-02T17:29:50.364Z,101795.78
2023-04-02T17:32:23.006Z,101793.97
2023-04-02T17:34:51.353Z,101793.88
2023-04-02T17:37:23.074Z,101793.03
2023-04-02T17:39:57.614Z,101801.31
2023-04-02T17:42:34.884Z,101806.28
2023-04-02T17:45:06.273Z,101811.81
2023-04-02T17:47:44.004Z,101810.19
2023-04-02T17:50:34.756Z,101812.06
2023-04-02T17:53:09.320Z,101824.78
2023-04-02T17:55:43.740Z,101819.53
2023-04-02T17:58:21.441Z,101823.75
2023-04-02T18:00:56.774Z,101821.78
2023-04-02T18:03:38.029Z,101822.41
2023-04-02T18:06:10.161Z,101823.38
2023-04-02T18:08:45.741Z,101827.53
2023-04-02T18:11:15.761Z,101827.78
2023-04-02T18:13:51.426Z,101833.25
2023-04-02T18:16:31.126Z,101841.41
2023-04-02T18:19:06.244Z,101834.06
2023-04-02T18:21:38.975Z,101837.56
2023-04-02T18:24:29.247Z,101841.78
2023-04-02T18:27:04.640Z,101843.72
2023-04-02T18:29:40.449Z,101845.75
2023-04-02T18:32:16.777Z,101853.75
2023-04-02T18:34:54.017Z,101854.75
2023-04-02T18:37:25.959Z,101852.13
2023-04-02T18:40:05.234Z,101851.13
2023-04-02T18:42:42.558Z,101859.09
2023-04-02T18:45:18.296Z,101862.88
2023-04-02T18:47:50.553Z,101866.38
2023-04-02T18:50:24.447Z,101869.16
2023-04-02T18:52:52.818Z,101868.22
2023-04-02T18:55:22.146Z,101865.78
2023-04-02T18:57:52.860Z,101875.50
2023-04-02T19:00:26.853Z,101865.16
2023-04-02T19:02:58.619Z,101871.47
2023-04-02T19:05:32.521Z,101870.50
2023-04-02T19:08:03.784Z,101879.41
2023-04-02T19:10:33.214Z,101879.06
2023-04-02T19:13:01.767Z,101869.38
2023-04-02T19:15:37.785Z,101874.13
2023-04-02T19:18:11.823Z,101868.97
2023-04-02T19:20:45.462Z,101877.09
2023-04-02T19:23:20.660Z,101870.94
2023-04-02T19:25:58.698Z,101874.56
2023-04-02T19:28:31.379Z,101874.81
2023-04-02T19:31:12.512Z,101875.63
2023-04-02T19:33:47.161Z,101883.63
2023-04-02T19:36:22.465Z,101882.88
2023-04-02T19:38:59.139Z,101889.22
2023-04-02T19:41:30.868Z,101886.59
2023-04-02T19:43:59.471Z,101891.88
2023-04-02T19:46:29.465Z,101888.38
2023-04-02T19:49:03.392Z,101888.19
2023-04-02T19:51:31.753Z,101893.72
2023-04-02T19:54:00.015Z,101897.31
2023-04-02T19:56:28.351Z,101897.34
2023-04-02T19:58:58.168Z,101904.31
2023-04-02T20:01:26.545Z,101901.00
2023-04-02T20:03:56.290Z,101907.94
2023-04-02T20:06:24.507Z,101908.78
2023-04-02T20:08:52.827Z,101906.13
2023-04-02T20:11:21.140Z,101904.50
2023-04-02T20:13:50.354Z,101904.63
2023-04-02T20:16:18.661Z,101907.19
2023-04-02T20:18:46.931Z,101908.19
2023-04-02T20:21:16.966Z,101911.59
2023-04-02T20:23:45.085Z,101915.09
2023-04-02T20:26:13.867Z,101912.56
2023-04-02T20:28:42.067Z,101911.72
2023-04-02T20:31:11.416Z,101915.44
2023-04-02T20:33:40.233Z,101922.38
2023-04-02T20:36:09.677Z,101912.81
2023-04-02T20:38:39.460Z,101910.06
2023-04-02T20:41:08.517Z,101911.00
2023-04-02T20:43:37.718Z,101913.75
2023-04-02T20:46:09.508Z,101918.09
2023-04-02T20:48:39.666Z,101913.75
2023-04-02T20:51:09.603Z,101908.47
2023-04-02T20:53:39.514Z,101914.72
2023-04-02T20:56:08.835Z,101910.34
2023-04-02T20:58:37.554Z,101910.19
2023-04-02T21:01:10.366Z,101917.00
2023-04-02T21:03:40.240Z,101908.28
2023-04-02T21:06:09.075Z,101912.69
2023-04-02T21:08:37.359Z,101910.09
2023-04-02T21:11:07.557Z,101912.81
2023-04-02T21:13:37.099Z,101910.72
2023-04-02T21:16:06.013Z,101913.47
2023-04-02T21:18:34.295Z,101911.03
2023-04-02T21:21:03.916Z,101916.31
2023-04-02T21:23:32.835Z,101917.75
2023-04-02T21:26:02.575Z,101925.94
2023-04-02T21:28:32.322Z,101926.94
2023-04-02T21:31:04.165Z,101930.97
2023-04-02T21:33:33.456Z,101929.41
2023-04-02T21:36:06.562Z,101930.47
2023-04-02T21:38:35.065Z,101924.91
2023-04-02T21:41:16.837Z,101926.91
2023-04-02T21:43:48.661Z,101927.91
2023-04-02T21:46:17.274Z,101927.81
2023-04-02T21:48:45.922Z,101929.50
2023-04-02T21:51:15.629Z,101924.91
2023-04-02T21:53:44.405Z,101927.00
2023-04-02T21:56:13.827Z,101925.00
2023-04-02T21:58:43.524Z,101925.94
2023-04-02T22:01:26.151Z,101928.66
2023-04-02T22:03:57.295Z,101928.69
2023-04-02T22:06:26.448Z,101921.72
2023-04-02T22:08:56.472Z,101926.22
2023-04-02T22:11:26.267Z,101938.56
2023-04-02T22:13:54.827Z,101934.97
2023-04-02T22:16:26.004Z,101941.03
2023-04-02T22:18:55.827Z,101933.19
2023-04-02T22:21:24.154Z,101936.84
2023-04-02T22:23:52.743Z,101936.69
2023-04-02T22:26:23.103Z,101943.94
2023-04-02T22:28:52.863Z,101943.00
2023-04-02T22:31:23.106Z,101940.38
2023-04-02T22:33:53.664Z,101939.44
2023-04-02T22:36:22.337Z,101942.13
2023-04-02T22:38:51.248Z,101944.88
2023-04-02T22:41:21.582Z,101942.22
2023-04-02T22:43:49.891Z,101945.53
2023-04-02T22:46:19.068Z,101945.88
2023-04-02T22:48:48.286Z,101948.28
2023-04-02T22:51:19.006Z,101953.69
2023-04-02T22:53:47.721Z,101951.94
2023-04-02T22:56:16.825Z,101944.88
2023-04-02T22:58:45.746Z,101942.31
2023-04-02T23:01:15.186Z,101942.31
2023-04-02T23:03:43.469Z,101940.63
2023-04-02T23:06:12.519Z,101938.56
2023-04-02T23:08:42.652Z,101944.69
2023-04-02T23:11:12.022Z,101943.09
2023-04-02T23:13:41.298Z,101937.22
2023-04-02T23:16:12.527Z,101946.81
2023-04-02T23:18:41.444Z,101943.34
2023-04-02T23:21:10.067Z,101947.84
2023-04-02T23:23:39.161Z,101941.56
2023-04-02T23:26:10.169Z,101944.28
2023-04-02T23:28:38.956Z,101943.50
2023-04-02T23:31:07.909Z,101947.97
2023-04-02T23:33:36.377Z,101948.72
2023-04-02T23:36:07.866Z,101946.13
2023-04-02T23:38:36.265Z,101945.28
2023-04-02T23:41:04.478Z,101946.19
2023-04-02T23:43:34.205Z,101952.44
2023-04-02T23:46:02.551Z,101944.63
2023-04-02T23:48:30.761Z,101950.66
2023-04-02T23:50:58.959Z,101948.81
2023-04-02T23:53:27.141Z,101952.34
2023-04-02T23:55:55.427Z,101955.94
2023-04-02T23:58:23.731Z,101953.16
